Dunkeld, United Kingdom
Current Conditions -  °F | °C
As of 3:50 PM on Thursday 30 Oct 2014 (Local Time) from EGPN Reporting Station
Broken Clouds Broken Clouds  
Wind Chill: 46°   Ceiling: 1300
Heat Index: 46°   Visibility: 6mi
Dew Point: 45°   Wind: 0mph
Humidity: 93%   Direction: NA
Pressure: 29.88"   Gusts: NA
Location:  56.56°N, 3.58°W
Report Text: EGPN 301550Z 00000KT 9999 BKN013 08/07 Q1012
Loading
Personal Weather Stations






























Interactive Weather Map
Tropical Storm Tracking
New forecast layout! Learn more

10-Day Weather Forecast

Advertisements
Track Severe Weather on mobile